createdAt,value
2018-09-04T00:00:06.142Z,12.84
2018-09-04T00:02:35.921Z,12.80
2018-09-04T00:05:05.868Z,12.81
2018-09-04T00:07:34.713Z,12.81
2018-09-04T00:10:03.739Z,12.77
2018-09-04T00:12:33.049Z,12.75
2018-09-04T00:15:02.648Z,12.73
2018-09-04T00:17:31.498Z,12.71
2018-09-04T00:20:00.283Z,12.70
2018-09-04T00:22:29.822Z,12.72
2018-09-04T00:24:58.627Z,12.71
2018-09-04T00:27:28.300Z,12.71
2018-09-04T00:29:57.898Z,12.71
2018-09-04T00:32:27.455Z,12.70
2018-09-04T00:34:56.827Z,12.67
2018-09-04T00:37:26.255Z,12.67
2018-09-04T00:39:55.905Z,12.66
2018-09-04T00:42:24.719Z,12.63
2018-09-04T00:44:53.969Z,12.63
2018-09-04T00:47:22.813Z,12.56
2018-09-04T00:49:51.560Z,12.51
2018-09-04T00:52:20.683Z,12.44
2018-09-04T00:54:49.833Z,12.40
2018-09-04T00:57:19.564Z,12.37
2018-09-04T00:59:48.407Z,12.38
2018-09-04T01:02:17.383Z,12.35
2018-09-04T01:04:48.358Z,12.36
2018-09-04T01:07:17.651Z,12.37
2018-09-04T01:09:46.480Z,12.38
2018-09-04T01:12:16.207Z,12.38
2018-09-04T01:14:44.970Z,12.37
2018-09-04T01:17:13.796Z,12.36
2018-09-04T01:19:42.634Z,12.35
2018-09-04T01:22:11.835Z,12.33
2018-09-04T01:24:40.651Z,12.33
2018-09-04T01:27:10.154Z,12.28
2018-09-04T01:29:39.684Z,12.25
2018-09-04T01:32:09.333Z,12.25
2018-09-04T01:34:38.839Z,12.22
2018-09-04T01:37:08.325Z,12.18
2018-09-04T01:39:37.640Z,12.18
2018-09-04T01:42:06.784Z,12.11
2018-09-04T01:44:37.518Z,12.05
2018-09-04T01:47:06.856Z,12.02
2018-09-04T01:49:37.301Z,12.00
2018-09-04T01:52:06.553Z,11.97
2018-09-04T01:54:35.562Z,11.94
2018-09-04T01:57:05.030Z,11.90
2018-09-04T01:59:33.787Z,11.88
2018-09-04T02:02:02.755Z,11.88
2018-09-04T02:04:32.050Z,11.87
2018-09-04T02:07:01.701Z,11.84
2018-09-04T02:09:31.250Z,11.80
2018-09-04T02:12:00.167Z,11.76
2018-09-04T02:14:28.907Z,11.75
2018-09-04T02:16:57.735Z,11.76
2018-09-04T02:19:26.555Z,11.75
2018-09-04T02:21:56.109Z,11.70
2018-09-04T02:24:24.893Z,11.62
2018-09-04T02:26:53.619Z,11.57
2018-09-04T02:29:23.733Z,11.54
2018-09-04T02:31:52.481Z,11.51
2018-09-04T02:34:21.945Z,11.48
2018-09-04T02:36:51.223Z,11.47
2018-09-04T02:39:20.988Z,11.44
2018-09-04T02:41:49.919Z,11.43
2018-09-04T02:44:19.016Z,11.40
2018-09-04T02:46:47.795Z,11.39
2018-09-04T02:49:16.795Z,11.36
2018-09-04T02:51:45.934Z,11.32
2018-09-04T02:54:14.965Z,11.27
2018-09-04T02:56:44.728Z,11.23
2018-09-04T02:59:14.088Z,11.20
2018-09-04T03:01:43.763Z,11.20
2018-09-04T03:04:12.640Z,11.18
2018-09-04T03:06:41.407Z,11.16
2018-09-04T03:09:11.115Z,11.13
2018-09-04T03:11:40.435Z,11.12
2018-09-04T03:14:09.195Z,11.10
2018-09-04T03:16:38.210Z,11.09
2018-09-04T03:19:07.634Z,11.07
2018-09-04T03:21:36.935Z,11.04
2018-09-04T03:24:07.431Z,11.03
2018-09-04T03:26:36.573Z,11.03
2018-09-04T03:29:06.347Z,11.00
2018-09-04T03:31:36.004Z,10.95
2018-09-04T03:34:05.786Z,10.91
2018-09-04T03:36:35.334Z,10.86
2018-09-04T03:39:05.405Z,10.84
2018-09-04T03:41:34.639Z,10.83
2018-09-04T03:44:03.544Z,10.82
2018-09-04T03:46:32.355Z,10.81
2018-09-04T03:49:01.292Z,10.81
2018-09-04T03:51:30.178Z,10.80
2018-09-04T03:53:59.071Z,10.81
2018-09-04T03:56:28.599Z,10.81
2018-09-04T03:58:57.807Z,10.80
2018-09-04T04:01:27.215Z,10.81
2018-09-04T04:03:56.623Z,10.81
2018-09-04T04:06:25.965Z,10.80
2018-09-04T04:08:54.702Z,10.80
2018-09-04T04:11:23.980Z,10.80
2018-09-04T04:13:52.796Z,10.83
2018-09-04T04:16:21.794Z,10.83
2018-09-04T04:18:50.754Z,10.82
2018-09-04T04:21:19.995Z,10.83
2018-09-04T04:23:49.840Z,10.83
2018-09-04T04:26:18.715Z,10.82
2018-09-04T04:28:47.812Z,10.83
2018-09-04T04:31:18.557Z,10.85
2018-09-04T04:33:48.611Z,10.86
2018-09-04T04:36:18.334Z,10.86
2018-09-04T04:38:48.469Z,10.88
2018-09-04T04:41:17.454Z,10.89
2018-09-04T04:43:46.741Z,10.90
2018-09-04T04:46:15.607Z,10.89
2018-09-04T04:48:44.396Z,10.88
2018-09-04T04:51:13.243Z,10.90
2018-09-04T04:53:42.582Z,10.96
2018-09-04T04:56:11.496Z,11.06
2018-09-04T04:58:41.289Z,11.17
2018-09-04T05:01:10.697Z,11.31
2018-09-04T05:03:40.421Z,11.41
2018-09-04T05:06:09.229Z,11.50
2018-09-04T05:08:38.409Z,11.57
2018-09-04T05:11:08.306Z,11.65
2018-09-04T05:13:38.336Z,11.72
2018-09-04T05:16:07.733Z,11.77
2018-09-04T05:18:37.083Z,11.84
2018-09-04T05:21:06.486Z,11.92
2018-09-04T05:23:36.422Z,11.99
2018-09-04T05:26:05.723Z,12.07
2018-09-04T05:28:35.659Z,12.13
2018-09-04T05:31:05.685Z,12.22
2018-09-04T05:33:38.284Z,12.31
2018-09-04T05:36:08.485Z,12.38
2018-09-04T05:38:39.808Z,12.46
2018-09-04T05:41:08.930Z,12.55
2018-09-04T05:43:53.585Z,12.65
2018-09-04T05:46:53.651Z,12.78
2018-09-04T05:49:26.512Z,12.89
2018-09-04T05:51:55.375Z,13.01
2018-09-04T05:54:24.273Z,13.19
2018-09-04T05:56:53.924Z,13.41
2018-09-04T05:59:22.865Z,13.62
2018-09-04T06:01:52.273Z,13.84
2018-09-04T06:04:21.747Z,14.04
2018-09-04T06:06:50.823Z,14.17
2018-09-04T06:09:20.914Z,14.34
2018-09-04T06:11:49.975Z,14.48
2018-09-04T06:14:18.968Z,14.61
2018-09-04T06:16:47.969Z,14.72
2018-09-04T06:19:16.812Z,14.82
2018-09-04T06:21:45.861Z,14.90
2018-09-04T06:24:15.464Z,14.98
2018-09-04T06:26:44.395Z,15.01
2018-09-04T06:29:13.238Z,15.10
2018-09-04T06:31:42.931Z,15.26
2018-09-04T06:34:12.521Z,15.39
2018-09-04T06:36:41.951Z,15.50
2018-09-04T06:39:11.807Z,15.62
2018-09-04T06:41:40.640Z,15.75
2018-09-04T06:44:09.434Z,15.89
2018-09-04T06:46:38.890Z,16.05
2018-09-04T06:49:08.232Z,16.21
2018-09-04T06:51:37.816Z,16.34
2018-09-04T06:54:07.172Z,16.52
2018-09-04T06:56:38.627Z,16.66
2018-09-04T06:59:08.493Z,16.78
2018-09-04T07:01:38.401Z,16.89
2018-09-04T07:04:07.743Z,17.03
2018-09-04T07:06:37.089Z,17.15
2018-09-04T07:09:08.779Z,17.31
2018-09-04T07:11:38.643Z,17.49
2018-09-04T07:14:08.100Z,17.63
2018-09-04T07:16:37.523Z,17.76
2018-09-04T07:19:07.547Z,17.96
2018-09-04T07:21:37.328Z,18.13
2018-09-04T07:24:07.015Z,18.21
2018-09-04T07:26:36.524Z,18.37
2018-09-04T07:29:05.671Z,18.58
2018-09-04T07:31:35.697Z,18.66
2018-09-04T07:34:05.747Z,18.70
2018-09-04T07:36:35.809Z,18.80
2018-09-04T07:39:07.616Z,18.88
2018-09-04T07:41:37.145Z,19.00
2018-09-04T07:44:06.579Z,19.10
2018-09-04T07:46:35.849Z,19.19
2018-09-04T07:49:05.246Z,19.38
2018-09-04T07:51:34.113Z,19.55
2018-09-04T07:54:02.924Z,19.65
2018-09-04T07:56:32.605Z,19.75
2018-09-04T07:59:02.311Z,19.80
2018-09-04T08:01:31.792Z,19.98
2018-09-04T08:04:00.572Z,20.14
2018-09-04T08:06:29.434Z,20.29
2018-09-04T08:08:58.231Z,20.37
2018-09-04T08:11:27.802Z,20.34
2018-09-04T08:13:56.554Z,20.52
2018-09-04T08:16:25.395Z,20.77
2018-09-04T08:18:54.106Z,20.96
2018-09-04T08:21:22.866Z,21.02
2018-09-04T08:23:52.203Z,21.19
2018-09-04T08:26:21.082Z,21.20
2018-09-04T08:28:49.984Z,21.19
2018-09-04T08:31:18.759Z,21.24
2018-09-04T08:33:48.572Z,21.19
2018-09-04T08:36:17.955Z,21.26
2018-09-04T08:38:49.400Z,21.27
2018-09-04T08:41:18.420Z,21.22
2018-09-04T08:43:47.555Z,21.21
2018-09-04T08:46:16.620Z,21.27
2018-09-04T08:48:45.379Z,21.26
2018-09-04T08:51:14.280Z,21.30
2018-09-04T08:53:43.826Z,21.32
2018-09-04T08:56:12.576Z,21.38
2018-09-04T08:58:42.296Z,21.40
2018-09-04T09:01:11.545Z,21.46
2018-09-04T09:03:40.864Z,21.47
2018-09-04T09:06:09.689Z,21.50
2018-09-04T09:08:38.514Z,21.54
2018-09-04T09:11:08.419Z,21.60
2018-09-04T09:13:37.664Z,21.61
2018-09-04T09:16:06.971Z,21.63
2018-09-04T09:18:36.238Z,21.57
2018-09-04T09:21:05.292Z,21.61
2018-09-04T09:23:35.072Z,21.67
2018-09-04T09:26:03.918Z,21.81
2018-09-04T09:29:03.243Z,21.90
2018-09-04T09:31:32.620Z,22.06
2018-09-04T09:34:02.046Z,22.23
2018-09-04T09:36:31.385Z,22.37
2018-09-04T09:39:00.603Z,22.53
2018-09-04T09:41:29.330Z,22.70
2018-09-04T09:43:58.083Z,22.85
2018-09-04T09:46:26.907Z,22.96
2018-09-04T09:48:55.660Z,23.07
2018-09-04T09:51:25.408Z,23.09
2018-09-04T09:53:54.204Z,23.12
2018-09-04T09:56:23.864Z,23.14
2018-09-04T09:58:53.221Z,23.23
2018-09-04T10:01:28.428Z,23.33
2018-09-04T10:04:01.920Z,23.28
2018-09-04T10:06:30.663Z,23.32
2018-09-04T10:08:59.445Z,23.28
2018-09-04T10:11:29.436Z,23.20
2018-09-04T10:13:58.385Z,23.20
2018-09-04T10:16:27.182Z,23.14
2018-09-04T10:18:56.092Z,23.25
2018-09-04T10:21:24.888Z,23.40
2018-09-04T10:23:54.210Z,23.46
2018-09-04T10:26:23.117Z,23.46
2018-09-04T10:28:51.933Z,23.49
2018-09-04T10:31:20.930Z,23.54
2018-09-04T10:33:50.748Z,23.48
2018-09-04T10:36:20.417Z,23.58
2018-09-04T10:38:49.813Z,23.68
2018-09-04T10:41:18.617Z,23.76
2018-09-04T10:43:47.536Z,23.87
2018-09-04T10:46:16.443Z,23.97
2018-09-04T10:48:45.732Z,24.09
2018-09-04T10:51:14.937Z,24.07
2018-09-04T10:53:43.703Z,24.01
2018-09-04T10:56:12.588Z,23.90
2018-09-04T10:58:42.005Z,23.81
2018-09-04T11:01:11.368Z,23.70
2018-09-04T11:03:40.244Z,23.75
2018-09-04T11:06:09.004Z,23.87
2018-09-04T11:08:38.184Z,23.89
2018-09-04T11:11:07.379Z,23.95
2018-09-04T11:13:36.604Z,23.94
2018-09-04T11:16:05.856Z,24.07
2018-09-04T11:18:34.743Z,24.07
2018-09-04T11:21:03.511Z,24.09
2018-09-04T11:23:33.022Z,24.13
2018-09-04T11:26:01.775Z,24.20
2018-09-04T11:28:30.789Z,24.27
2018-09-04T11:30:59.655Z,24.33
2018-09-04T11:33:29.271Z,24.46
2018-09-04T11:35:58.879Z,24.51
2018-09-04T11:38:28.467Z,24.48
2018-09-04T11:40:57.571Z,24.50
2018-09-04T11:46:10.100Z,24.56
2018-09-04T11:48:39.603Z,24.72
2018-09-04T11:51:10.891Z,24.82
2018-09-04T11:53:39.629Z,24.80
2018-09-04T11:56:08.566Z,24.73
2018-09-04T11:58:38.114Z,24.68
2018-09-04T12:01:11.217Z,24.74
2018-09-04T12:03:40.086Z,24.74
2018-09-04T12:06:08.909Z,24.85
2018-09-04T12:08:38.184Z,24.98
2018-09-04T12:11:07.552Z,25.04
2018-09-04T12:13:36.700Z,25.03
2018-09-04T12:16:05.925Z,25.08
2018-09-04T12:18:34.770Z,25.07
2018-09-04T12:21:08.500Z,24.97
2018-09-04T12:23:38.238Z,24.88
2018-09-04T12:26:10.070Z,24.93
2018-09-04T12:28:38.903Z,24.90
2018-09-04T12:31:08.645Z,24.82
2018-09-04T12:33:38.427Z,24.67
2018-09-04T12:36:08.359Z,24.61
2018-09-04T12:38:40.018Z,24.56
2018-09-04T12:41:14.677Z,24.56
2018-09-04T12:43:44.354Z,24.62
2018-09-04T12:46:13.167Z,24.59
2018-09-04T12:48:48.765Z,24.60
2018-09-04T12:51:17.655Z,24.63
2018-09-04T12:53:46.756Z,24.64
2018-09-04T12:56:15.925Z,24.65
2018-09-04T12:58:45.279Z,24.53
2018-09-04T13:01:15.171Z,24.53
2018-09-04T13:03:44.008Z,24.57
2018-09-04T13:06:12.813Z,24.64
2018-09-04T13:08:42.272Z,24.63
2018-09-04T13:11:11.787Z,24.67
2018-09-04T13:13:40.779Z,24.64
2018-09-04T13:16:09.685Z,24.63
2018-09-04T13:18:38.686Z,24.65
2018-09-04T13:21:08.393Z,24.63
2018-09-04T13:23:38.211Z,24.63
2018-09-04T13:26:07.536Z,24.64
2018-09-04T13:28:37.504Z,24.66
2018-09-04T13:31:06.864Z,24.67
2018-09-04T13:33:36.818Z,24.62
2018-09-04T13:36:06.451Z,24.57
2018-09-04T13:38:36.716Z,24.57
2018-09-04T13:41:08.838Z,24.56
2018-09-04T13:43:39.303Z,24.47
2018-09-04T13:46:08.384Z,24.48
2018-09-04T13:48:37.748Z,24.46
2018-09-04T13:51:07.194Z,24.51
2018-09-04T13:53:36.334Z,24.56
2018-09-04T13:56:05.718Z,24.61
2018-09-04T13:58:35.438Z,24.65
2018-09-04T14:01:04.837Z,24.63
2018-09-04T14:03:33.689Z,24.51
2018-09-04T14:06:02.541Z,24.44
2018-09-04T14:08:32.131Z,24.48
2018-09-04T14:11:00.967Z,24.50
2018-09-04T14:13:29.813Z,24.53
2018-09-04T14:16:01.248Z,24.55
2018-09-04T14:18:30.023Z,24.51
2018-09-04T14:20:58.824Z,24.53
2018-09-04T14:23:28.124Z,24.61
2018-09-04T14:25:56.892Z,24.68
2018-09-04T14:28:41.491Z,24.71
2018-09-04T14:30:54.685Z,24.82
2018-09-04T14:33:23.543Z,24.71
2018-09-04T14:35:52.829Z,24.69
2018-09-04T14:38:22.195Z,24.78
2018-09-04T14:40:51.771Z,24.82
2018-09-04T14:43:22.151Z,24.83
2018-09-04T14:45:53.845Z,24.74
2018-09-04T14:49:31.132Z,24.75
2018-09-04T14:52:00.014Z,24.77
2018-09-04T14:54:28.994Z,24.83
2018-09-04T14:56:58.503Z,24.69
2018-09-04T14:59:28.867Z,24.62
2018-09-04T15:01:58.307Z,24.58
2018-09-04T15:04:27.668Z,24.50
2018-09-04T15:06:56.440Z,24.38
2018-09-04T15:09:25.879Z,24.34
2018-09-04T15:11:54.651Z,24.27
2018-09-04T15:14:24.848Z,24.23
2018-09-04T15:16:55.655Z,24.18
2018-09-04T15:19:24.478Z,24.11
2018-09-04T15:21:53.274Z,24.03
2018-09-04T15:24:22.821Z,24.04
2018-09-04T15:26:51.636Z,24.09
2018-09-04T15:29:20.763Z,24.13
2018-09-04T15:31:49.962Z,24.23
2018-09-04T15:34:19.722Z,24.28
2018-09-04T15:36:50.578Z,24.35
2018-09-04T15:39:19.519Z,24.39
2018-09-04T15:41:48.565Z,24.45
2018-09-04T15:44:17.371Z,24.56
2018-09-04T15:46:46.257Z,24.66
2018-09-04T15:49:20.433Z,24.72
2018-09-04T15:51:49.492Z,24.77
2018-09-04T15:54:18.560Z,24.87
2018-09-04T15:56:47.623Z,25.02
2018-09-04T15:59:17.123Z,25.13
2018-09-04T16:01:46.567Z,25.28
2018-09-04T16:04:15.376Z,25.50
2018-09-04T16:06:44.196Z,25.54
2018-09-04T16:09:13.538Z,25.63
2018-09-04T16:11:42.410Z,25.71
2018-09-04T16:14:11.186Z,25.80
2018-09-04T16:16:41.475Z,25.79
2018-09-04T16:19:10.329Z,25.83
2018-09-04T16:21:53.810Z,25.97
2018-09-04T16:24:23.017Z,26.01
2018-09-04T16:26:51.829Z,25.93
2018-09-04T16:29:21.623Z,25.72
2018-09-04T16:31:50.630Z,25.63
2018-09-04T16:34:20.450Z,25.56
2018-09-04T16:36:50.883Z,25.45
2018-09-04T16:39:19.833Z,25.11
2018-09-04T16:41:48.884Z,24.79
2018-09-04T16:44:17.925Z,24.48
2018-09-04T16:46:46.946Z,24.24
2018-09-04T16:49:15.856Z,23.94
2018-09-04T16:51:45.236Z,23.75
2018-09-04T16:54:14.012Z,23.62
2018-09-04T16:56:42.871Z,23.41
2018-09-04T16:59:12.200Z,23.21
2018-09-04T17:01:41.667Z,23.03
2018-09-04T17:04:10.508Z,22.87
2018-09-04T17:06:39.319Z,22.72
2018-09-04T17:09:08.772Z,22.55
2018-09-04T17:11:38.396Z,22.42
2018-09-04T17:14:08.093Z,22.29
2018-09-04T17:16:37.292Z,22.17
2018-09-04T17:19:06.624Z,22.06
2018-09-04T17:21:35.848Z,21.88
2018-09-04T17:24:06.321Z,21.75
2018-09-04T17:26:35.472Z,21.59
2018-09-04T17:29:04.890Z,21.47
2018-09-04T17:31:34.111Z,21.31
2018-09-04T17:34:03.527Z,21.19
2018-09-04T17:36:32.878Z,21.07
2018-09-04T17:39:02.467Z,20.95
2018-09-04T17:41:31.254Z,20.83
2018-09-04T17:44:00.015Z,20.76
2018-09-04T17:46:28.870Z,20.61
2018-09-04T17:48:57.639Z,20.51
2018-09-04T17:51:26.633Z,20.41
2018-09-04T17:53:55.774Z,20.28
2018-09-04T17:56:24.518Z,20.19
2018-09-04T17:58:53.971Z,20.10
2018-09-04T18:01:24.208Z,20.00
2018-09-04T18:03:53.638Z,19.92
2018-09-04T18:06:23.087Z,19.83
2018-09-04T18:08:52.459Z,19.75
2018-09-04T18:11:21.330Z,19.66
2018-09-04T18:13:50.135Z,19.57
2018-09-04T18:16:18.953Z,19.48
2018-09-04T18:18:47.814Z,19.39
2018-09-04T18:21:16.673Z,19.33
2018-09-04T18:23:46.244Z,19.25
2018-09-04T18:26:15.088Z,19.17
2018-09-04T18:28:45.052Z,19.08
2018-09-04T18:31:13.876Z,19.00
2018-09-04T18:33:43.417Z,18.93
2018-09-04T18:36:12.653Z,18.84
2018-09-04T18:38:41.981Z,18.78
2018-09-04T18:41:10.744Z,18.71
2018-09-04T18:43:39.558Z,18.63
2018-09-04T18:46:08.412Z,18.55
2018-09-04T18:48:37.679Z,18.49
2018-09-04T18:51:08.047Z,18.41
2018-09-04T18:53:37.142Z,18.34
2018-09-04T18:56:06.970Z,18.23
2018-09-04T18:58:36.510Z,18.21
2018-09-04T19:01:06.795Z,18.12
2018-09-04T19:03:35.968Z,18.04
2018-09-04T19:06:05.618Z,17.95
2018-09-04T19:08:35.253Z,17.85
2018-09-04T19:11:04.823Z,17.75
2018-09-04T19:13:33.625Z,17.68
2018-09-04T19:16:02.884Z,17.62
2018-09-04T19:18:31.647Z,17.58
2018-09-04T19:21:00.613Z,17.54
2018-09-04T19:23:30.252Z,17.52
2018-09-04T19:25:59.240Z,17.49
2018-09-04T19:28:28.772Z,17.44
2018-09-04T19:30:57.688Z,17.40
2018-09-04T19:33:26.481Z,17.37
2018-09-04T19:35:55.771Z,17.32
2018-09-04T19:38:25.562Z,17.24
2018-09-04T19:40:55.169Z,17.16
2018-09-04T19:43:23.977Z,17.09
2018-09-04T19:45:52.808Z,17.06
2018-09-04T19:48:21.683Z,17.03
2018-09-04T19:50:50.690Z,16.99
2018-09-04T19:53:19.915Z,16.94
2018-09-04T19:55:49.073Z,16.89
2018-09-04T19:58:18.489Z,16.86
2018-09-04T20:00:48.058Z,16.81
2018-09-04T20:03:16.878Z,16.76
2018-09-04T20:05:45.708Z,16.73
2018-09-04T20:08:14.956Z,16.71
2018-09-04T20:10:44.195Z,16.67
2018-09-04T20:13:13.028Z,16.65
2018-09-04T20:15:41.732Z,16.61
2018-09-04T20:18:10.554Z,16.55
2018-09-04T20:20:39.301Z,16.45
2018-09-04T20:23:09.011Z,16.36
2018-09-04T20:25:38.495Z,16.30
2018-09-04T20:28:08.939Z,16.20
2018-09-04T20:30:38.643Z,16.15
2018-09-04T20:33:07.858Z,16.12
2018-09-04T20:35:37.743Z,16.07
2018-09-04T20:38:07.779Z,16.02
2018-09-04T20:40:37.058Z,15.97
2018-09-04T20:43:06.729Z,15.94
2018-09-04T20:45:35.764Z,15.92
2018-09-04T20:48:05.887Z,15.89
2018-09-04T20:50:35.183Z,15.87
2018-09-04T20:53:04.732Z,15.84
2018-09-04T20:55:33.606Z,15.81
2018-09-04T20:58:14.031Z,15.76
2018-09-04T21:00:54.323Z,15.72
2018-09-04T21:03:34.035Z,15.68
2018-09-04T21:06:13.878Z,15.64
2018-09-04T21:08:53.791Z,15.61
2018-09-04T21:11:22.735Z,15.57
2018-09-04T21:13:51.571Z,15.53
2018-09-04T21:16:21.338Z,15.47
2018-09-04T21:18:51.222Z,15.38
2018-09-04T21:21:20.397Z,15.28
2018-09-04T21:23:50.181Z,15.22
2018-09-04T21:26:19.594Z,15.16
2018-09-04T21:28:49.826Z,15.13
2018-09-04T21:31:18.678Z,15.08
2018-09-04T21:33:49.160Z,15.02
2018-09-04T21:36:18.600Z,15.00
2018-09-04T21:38:48.531Z,14.97
2018-09-04T21:41:17.422Z,14.95
2018-09-04T21:43:46.274Z,14.93
2018-09-04T21:46:15.147Z,14.92
2018-09-04T21:48:43.907Z,14.90
2018-09-04T21:51:12.827Z,14.89
2018-09-04T21:53:41.715Z,14.81
2018-09-04T21:56:10.572Z,14.79
2018-09-04T21:58:40.214Z,14.77
2018-09-04T22:01:09.724Z,14.75
2018-09-04T22:03:38.517Z,14.72
2018-09-04T22:06:07.899Z,14.68
2018-09-04T22:08:38.545Z,14.66
2018-09-04T22:11:07.738Z,14.65
2018-09-04T22:13:37.412Z,14.65
2018-09-04T22:16:07.329Z,14.64
2018-09-04T22:18:36.803Z,14.64
2018-09-04T22:21:07.004Z,14.60
2018-09-04T22:23:36.911Z,14.57
2018-09-04T22:26:05.937Z,14.55
2018-09-04T22:28:36.051Z,14.54
2018-09-04T22:31:05.398Z,14.50
2018-09-04T22:33:34.186Z,14.50
2018-09-04T22:36:03.980Z,14.48
2018-09-04T22:38:33.480Z,14.47
2018-09-04T22:41:02.268Z,14.44
2018-09-04T22:43:31.187Z,14.40
2018-09-04T22:46:00.043Z,14.37
2018-09-04T22:48:29.819Z,14.33
2018-09-04T22:51:03.837Z,14.26
2018-09-04T22:53:32.768Z,14.20
2018-09-04T22:56:01.557Z,14.17
2018-09-04T22:58:31.167Z,14.12
2018-09-04T23:01:00.984Z,14.10
2018-09-04T23:03:29.770Z,14.06
2018-09-04T23:05:58.687Z,14.02
2018-09-04T23:08:28.160Z,14.00
2018-09-04T23:10:57.384Z,13.99
2018-09-04T23:13:26.272Z,13.96
2018-09-04T23:15:55.117Z,13.96
2018-09-04T23:18:24.801Z,13.91
2018-09-04T23:20:53.719Z,13.85
2018-09-04T23:23:23.094Z,13.80
2018-09-04T23:25:51.905Z,13.80
2018-09-04T23:28:21.481Z,13.80
2018-09-04T23:30:50.932Z,13.80
2018-09-04T23:33:19.999Z,13.81
2018-09-04T23:35:49.342Z,13.81
2018-09-04T23:38:20.694Z,13.78
2018-09-04T23:40:49.709Z,13.78
2018-09-04T23:43:18.527Z,13.77
2018-09-04T23:45:47.438Z,13.75
2018-09-04T23:48:16.225Z,13.71
2018-09-04T23:50:45.136Z,13.69
2018-09-04T23:53:14.225Z,13.68
2018-09-04T23:55:43.070Z,13.64
2018-09-04T23:58:12.339Z,13.59
